sensor_id;sensor_type;location;lat;lon;timestamp;P1;durP1;ratioP1;P2;durP2;ratioP2
6388;SDS011;3227;42.654;23.360;2023-06-10T00:00:00;13.77;;;7.97;;
6388;SDS011;3227;42.654;23.360;2023-06-10T00:02:27;12.57;;;7.85;;
6388;SDS011;3227;42.654;23.360;2023-06-10T00:04:53;11.73;;;7.97;;
6388;SDS011;3227;42.654;23.360;2023-06-10T00:07:21;19.38;;;8.50;;
6388;SDS011;3227;42.654;23.360;2023-06-10T00:09:48;17.15;;;8.52;;
6388;SDS011;3227;42.654;23.360;2023-06-10T00:12:15;14.13;;;8.38;;
6388;SDS011;3227;42.654;23.360;2023-06-10T00:14:43;11.70;;;8.48;;
6388;SDS011;3227;42.654;23.360;2023-06-10T00:17:09;14.27;;;8.85;;
6388;SDS011;3227;42.654;23.360;2023-06-10T00:19:36;14.27;;;8.60;;
6388;SDS011;3227;42.654;23.360;2023-06-10T00:22:06;18.85;;;8.52;;
6388;SDS011;3227;42.654;23.360;2023-06-10T00:24:35;14.68;;;7.90;;
6388;SDS011;3227;42.654;23.360;2023-06-10T00:27:01;13.65;;;7.53;;
6388;SDS011;3227;42.654;23.360;2023-06-10T00:29:28;17.48;;;8.38;;
6388;SDS011;3227;42.654;23.360;2023-06-10T00:31:55;11.23;;;7.43;;
6388;SDS011;3227;42.654;23.360;2023-06-10T00:34:23;15.85;;;7.38;;
6388;SDS011;3227;42.654;23.360;2023-06-10T00:36:50;11.90;;;7.30;;
6388;SDS011;3227;42.654;23.360;2023-06-10T00:39:16;14.00;;;7.05;;
6388;SDS011;3227;42.654;23.360;2023-06-10T00:41:44;11.30;;;7.13;;
6388;SDS011;3227;42.654;23.360;2023-06-10T00:44:11;10.75;;;6.93;;
6388;SDS011;3227;42.654;23.360;2023-06-10T00:46:38;11.70;;;7.97;;
6388;SDS011;3227;42.654;23.360;2023-06-10T00:49:05;12.02;;;7.35;;
6388;SDS011;3227;42.654;23.360;2023-06-10T00:51:32;11.75;;;8.25;;
6388;SDS011;3227;42.654;23.360;2023-06-10T00:53:59;14.45;;;8.32;;
6388;SDS011;3227;42.654;23.360;2023-06-10T00:56:26;11.35;;;8.20;;
6388;SDS011;3227;42.654;23.360;2023-06-10T00:58:55;19.98;;;9.00;;
6388;SDS011;3227;42.654;23.360;2023-06-10T01:01:21;15.07;;;9.48;;
6388;SDS011;3227;42.654;23.360;2023-06-10T01:03:48;12.55;;;9.93;;
6388;SDS011;3227;42.654;23.360;2023-06-10T01:06:18;12.75;;;9.25;;
6388;SDS011;3227;42.654;23.360;2023-06-10T01:08:55;13.18;;;9.40;;
6388;SDS011;3227;42.654;23.360;2023-06-10T01:11:28;14.65;;;9.63;;
6388;SDS011;3227;42.654;23.360;2023-06-10T01:14:01;13.90;;;9.27;;
6388;SDS011;3227;42.654;23.360;2023-06-10T01:16:32;13.48;;;9.23;;
6388;SDS011;3227;42.654;23.360;2023-06-10T01:19:01;13.40;;;8.95;;
6388;SDS011;3227;42.654;23.360;2023-06-10T01:21:29;14.85;;;9.10;;
6388;SDS011;3227;42.654;23.360;2023-06-10T01:23:56;14.40;;;9.95;;
6388;SDS011;3227;42.654;23.360;2023-06-10T01:26:24;15.10;;;9.90;;
6388;SDS011;3227;42.654;23.360;2023-06-10T01:28:57;14.02;;;9.52;;
6388;SDS011;3227;42.654;23.360;2023-06-10T01:31:30;18.17;;;10.35;;
6388;SDS011;3227;42.654;23.360;2023-06-10T01:34:06;14.25;;;9.82;;
6388;SDS011;3227;42.654;23.360;2023-06-10T01:36:37;17.80;;;10.50;;
6388;SDS011;3227;42.654;23.360;2023-06-10T01:39:06;16.00;;;10.23;;
6388;SDS011;3227;42.654;23.360;2023-06-10T01:41:35;19.02;;;11.18;;
6388;SDS011;3227;42.654;23.360;2023-06-10T01:44:02;12.50;;;9.27;;
6388;SDS011;3227;42.654;23.360;2023-06-10T01:46:29;12.95;;;9.93;;
6388;SDS011;3227;42.654;23.360;2023-06-10T01:48:56;16.45;;;10.45;;
6388;SDS011;3227;42.654;23.360;2023-06-10T01:51:23;14.20;;;9.98;;
6388;SDS011;3227;42.654;23.360;2023-06-10T01:53:51;16.15;;;10.25;;
6388;SDS011;3227;42.654;23.360;2023-06-10T01:56:18;18.35;;;9.75;;
6388;SDS011;3227;42.654;23.360;2023-06-10T01:58:45;15.00;;;9.57;;
6388;SDS011;3227;42.654;23.360;2023-06-10T02:01:13;14.23;;;8.90;;
6388;SDS011;3227;42.654;23.360;2023-06-10T02:03:40;13.85;;;9.15;;
6388;SDS011;3227;42.654;23.360;2023-06-10T02:06:07;16.85;;;9.45;;
6388;SDS011;3227;42.654;23.360;2023-06-10T02:08:33;13.25;;;8.85;;
6388;SDS011;3227;42.654;23.360;2023-06-10T02:11:02;14.85;;;8.43;;
6388;SDS011;3227;42.654;23.360;2023-06-10T02:13:28;12.98;;;9.23;;
6388;SDS011;3227;42.654;23.360;2023-06-10T02:15:55;11.90;;;8.48;;
6388;SDS011;3227;42.654;23.360;2023-06-10T02:18:22;14.93;;;9.88;;
6388;SDS011;3227;42.654;23.360;2023-06-10T02:20:49;12.43;;;8.98;;
6388;SDS011;3227;42.654;23.360;2023-06-10T02:23:16;16.55;;;9.30;;
6388;SDS011;3227;42.654;23.360;2023-06-10T02:25:42;12.98;;;9.23;;
6388;SDS011;3227;42.654;23.360;2023-06-10T02:28:11;14.10;;;9.35;;
6388;SDS011;3227;42.654;23.360;2023-06-10T02:30:38;18.13;;;8.35;;
6388;SDS011;3227;42.654;23.360;2023-06-10T02:33:06;12.15;;;8.75;;
6388;SDS011;3227;42.654;23.360;2023-06-10T02:35:35;14.32;;;9.18;;
6388;SDS011;3227;42.654;23.360;2023-06-10T02:38:02;15.15;;;9.05;;
6388;SDS011;3227;42.654;23.360;2023-06-10T02:40:29;15.45;;;9.02;;
6388;SDS011;3227;42.654;23.360;2023-06-10T02:42:56;13.38;;;8.43;;
6388;SDS011;3227;42.654;23.360;2023-06-10T02:45:24;14.45;;;8.88;;
6388;SDS011;3227;42.654;23.360;2023-06-10T02:47:51;13.93;;;8.32;;
6388;SDS011;3227;42.654;23.360;2023-06-10T02:50:17;11.82;;;8.73;;
6388;SDS011;3227;42.654;23.360;2023-06-10T02:52:44;12.60;;;8.43;;
6388;SDS011;3227;42.654;23.360;2023-06-10T02:55:11;13.48;;;8.77;;
6388;SDS011;3227;42.654;23.360;2023-06-10T02:57:38;13.80;;;8.68;;
6388;SDS011;3227;42.654;23.360;2023-06-10T03:00:05;13.13;;;8.90;;
6388;SDS011;3227;42.654;23.360;2023-06-10T03:02:37;11.20;;;8.57;;
6388;SDS011;3227;42.654;23.360;2023-06-10T03:05:05;14.82;;;8.98;;
6388;SDS011;3227;42.654;23.360;2023-06-10T03:07:35;13.50;;;8.95;;
6388;SDS011;3227;42.654;23.360;2023-06-10T03:10:02;15.90;;;9.52;;
6388;SDS011;3227;42.654;23.360;2023-06-10T03:12:29;12.38;;;8.57;;
6388;SDS011;3227;42.654;23.360;2023-06-10T03:14:56;11.30;;;8.43;;
6388;SDS011;3227;42.654;23.360;2023-06-10T03:17:23;18.85;;;8.35;;
6388;SDS011;3227;42.654;23.360;2023-06-10T03:19:51;12.60;;;8.68;;
6388;SDS011;3227;42.654;23.360;2023-06-10T03:22:18;16.30;;;8.75;;
6388;SDS011;3227;42.654;23.360;2023-06-10T03:24:45;14.65;;;9.40;;
6388;SDS011;3227;42.654;23.360;2023-06-10T03:27:15;14.25;;;9.02;;
6388;SDS011;3227;42.654;23.360;2023-06-10T03:29:42;12.35;;;9.48;;
6388;SDS011;3227;42.654;23.360;2023-06-10T03:32:09;15.95;;;9.57;;
6388;SDS011;3227;42.654;23.360;2023-06-10T03:34:36;13.93;;;8.90;;
6388;SDS011;3227;42.654;23.360;2023-06-10T03:37:05;12.55;;;8.90;;
6388;SDS011;3227;42.654;23.360;2023-06-10T03:39:32;13.13;;;8.75;;
6388;SDS011;3227;42.654;23.360;2023-06-10T03:41:59;16.30;;;8.93;;
6388;SDS011;3227;42.654;23.360;2023-06-10T03:44:26;14.98;;;9.05;;
6388;SDS011;3227;42.654;23.360;2023-06-10T03:46:53;14.70;;;9.48;;
6388;SDS011;3227;42.654;23.360;2023-06-10T03:49:19;14.02;;;9.32;;
6388;SDS011;3227;42.654;23.360;2023-06-10T03:51:46;15.50;;;9.27;;
6388;SDS011;3227;42.654;23.360;2023-06-10T03:54:17;15.73;;;9.70;;
6388;SDS011;3227;42.654;23.360;2023-06-10T03:56:43;15.52;;;9.55;;
6388;SDS011;3227;42.654;23.360;2023-06-10T03:59:10;13.82;;;9.27;;
6388;SDS011;3227;42.654;23.360;2023-06-10T04:01:37;14.45;;;8.95;;
6388;SDS011;3227;42.654;23.360;2023-06-10T04:04:06;13.75;;;9.48;;
6388;SDS011;3227;42.654;23.360;2023-06-10T04:06:33;17.40;;;9.55;;
6388;SDS011;3227;42.654;23.360;2023-06-10T04:08:59;15.68;;;8.82;;
6388;SDS011;3227;42.654;23.360;2023-06-10T04:11:29;16.65;;;10.15;;
6388;SDS011;3227;42.654;23.360;2023-06-10T04:13:57;16.42;;;9.55;;
6388;SDS011;3227;42.654;23.360;2023-06-10T04:16:24;16.42;;;9.35;;
6388;SDS011;3227;42.654;23.360;2023-06-10T04:18:51;16.75;;;9.98;;
6388;SDS011;3227;42.654;23.360;2023-06-10T04:21:18;16.58;;;9.80;;
6388;SDS011;3227;42.654;23.360;2023-06-10T04:23:44;12.18;;;9.57;;
6388;SDS011;3227;42.654;23.360;2023-06-10T04:26:11;11.98;;;9.23;;
6388;SDS011;3227;42.654;23.360;2023-06-10T04:28:39;14.57;;;9.93;;
6388;SDS011;3227;42.654;23.360;2023-06-10T04:31:06;15.93;;;10.02;;
6388;SDS011;3227;42.654;23.360;2023-06-10T04:33:33;14.20;;;9.70;;
6388;SDS011;3227;42.654;23.360;2023-06-10T04:35:59;14.55;;;9.30;;
6388;SDS011;3227;42.654;23.360;2023-06-10T04:38:26;15.85;;;9.57;;
6388;SDS011;3227;42.654;23.360;2023-06-10T04:40:53;14.20;;;10.23;;
6388;SDS011;3227;42.654;23.360;2023-06-10T04:43:20;15.15;;;10.02;;
6388;SDS011;3227;42.654;23.360;2023-06-10T04:45:48;12.45;;;9.45;;
6388;SDS011;3227;42.654;23.360;2023-06-10T04:48:15;17.08;;;9.10;;
6388;SDS011;3227;42.654;23.360;2023-06-10T04:50:42;12.85;;;9.00;;
6388;SDS011;3227;42.654;23.360;2023-06-10T04:53:09;12.63;;;9.25;;
6388;SDS011;3227;42.654;23.360;2023-06-10T04:55:36;12.98;;;8.68;;
6388;SDS011;3227;42.654;23.360;2023-06-10T04:58:03;14.10;;;8.88;;
6388;SDS011;3227;42.654;23.360;2023-06-10T05:00:29;17.70;;;10.38;;
6388;SDS011;3227;42.654;23.360;2023-06-10T05:02:57;18.35;;;11.57;;
6388;SDS011;3227;42.654;23.360;2023-06-10T05:05:24;18.02;;;11.38;;
6388;SDS011;3227;42.654;23.360;2023-06-10T05:07:51;15.68;;;10.25;;
6388;SDS011;3227;42.654;23.360;2023-06-10T05:10:18;14.57;;;9.10;;
6388;SDS011;3227;42.654;23.360;2023-06-10T05:12:45;14.77;;;10.30;;
6388;SDS011;3227;42.654;23.360;2023-06-10T05:15:12;17.08;;;10.25;;
6388;SDS011;3227;42.654;23.360;2023-06-10T05:17:39;11.63;;;9.32;;
6388;SDS011;3227;42.654;23.360;2023-06-10T05:20:07;15.88;;;10.20;;
6388;SDS011;3227;42.654;23.360;2023-06-10T05:22:35;14.45;;;10.55;;
6388;SDS011;3227;42.654;23.360;2023-06-10T05:25:02;15.20;;;9.82;;
6388;SDS011;3227;42.654;23.360;2023-06-10T05:27:29;15.63;;;9.73;;
6388;SDS011;3227;42.654;23.360;2023-06-10T05:29:56;15.35;;;9.57;;
6388;SDS011;3227;42.654;23.360;2023-06-10T05:32:22;15.13;;;8.93;;
6388;SDS011;3227;42.654;23.360;2023-06-10T05:34:49;12.93;;;8.73;;
6388;SDS011;3227;42.654;23.360;2023-06-10T05:37:17;14.25;;;8.95;;
6388;SDS011;3227;42.654;23.360;2023-06-10T05:39:44;17.40;;;9.45;;
6388;SDS011;3227;42.654;23.360;2023-06-10T05:42:11;13.20;;;9.18;;
6388;SDS011;3227;42.654;23.360;2023-06-10T05:44:37;14.88;;;9.32;;
6388;SDS011;3227;42.654;23.360;2023-06-10T05:47:05;13.45;;;10.18;;
6388;SDS011;3227;42.654;23.360;2023-06-10T05:49:31;16.27;;;10.73;;
6388;SDS011;3227;42.654;23.360;2023-06-10T05:51:58;15.27;;;11.07;;
6388;SDS011;3227;42.654;23.360;2023-06-10T05:54:26;15.32;;;11.30;;
6388;SDS011;3227;42.654;23.360;2023-06-10T05:56:55;13.57;;;9.65;;
6388;SDS011;3227;42.654;23.360;2023-06-10T05:59:22;14.02;;;10.80;;
6388;SDS011;3227;42.654;23.360;2023-06-10T06:01:49;14.02;;;9.32;;
6388;SDS011;3227;42.654;23.360;2023-06-10T06:04:16;15.00;;;11.02;;
6388;SDS011;3227;42.654;23.360;2023-06-10T06:06:42;11.23;;;8.55;;
6388;SDS011;3227;42.654;23.360;2023-06-10T06:09:09;13.88;;;9.88;;
6388;SDS011;3227;42.654;23.360;2023-06-10T06:11:38;18.35;;;10.60;;
6388;SDS011;3227;42.654;23.360;2023-06-10T06:14:05;16.45;;;10.68;;
6388;SDS011;3227;42.654;23.360;2023-06-10T06:16:31;16.48;;;11.60;;
6388;SDS011;3227;42.654;23.360;2023-06-10T06:18:58;19.30;;;11.95;;
6388;SDS011;3227;42.654;23.360;2023-06-10T06:21:25;17.08;;;12.23;;
6388;SDS011;3227;42.654;23.360;2023-06-10T06:23:52;13.15;;;10.70;;
6388;SDS011;3227;42.654;23.360;2023-06-10T06:26:19;18.38;;;12.07;;
6388;SDS011;3227;42.654;23.360;2023-06-10T06:28:47;25.00;;;10.30;;
6388;SDS011;3227;42.654;23.360;2023-06-10T06:31:13;16.33;;;10.93;;
6388;SDS011;3227;42.654;23.360;2023-06-10T06:33:40;16.40;;;10.00;;
6388;SDS011;3227;42.654;23.360;2023-06-10T06:36:07;17.60;;;11.18;;
6388;SDS011;3227;42.654;23.360;2023-06-10T06:38:34;16.33;;;10.15;;
6388;SDS011;3227;42.654;23.360;2023-06-10T06:41:00;14.73;;;8.55;;
6388;SDS011;3227;42.654;23.360;2023-06-10T06:43:31;18.33;;;9.50;;
6388;SDS011;3227;42.654;23.360;2023-06-10T06:45:59;15.63;;;9.52;;
6388;SDS011;3227;42.654;23.360;2023-06-10T06:48:26;12.73;;;7.85;;
6388;SDS011;3227;42.654;23.360;2023-06-10T06:50:52;16.00;;;9.55;;
6388;SDS011;3227;42.654;23.360;2023-06-10T06:53:21;20.60;;;8.80;;
6388;SDS011;3227;42.654;23.360;2023-06-10T06:55:48;13.40;;;8.13;;
6388;SDS011;3227;42.654;23.360;2023-06-10T06:58:14;15.40;;;7.97;;
6388;SDS011;3227;42.654;23.360;2023-06-10T07:00:41;12.60;;;7.07;;
6388;SDS011;3227;42.654;23.360;2023-06-10T07:03:09;11.48;;;7.70;;
6388;SDS011;3227;42.654;23.360;2023-06-10T07:05:36;15.38;;;6.57;;
6388;SDS011;3227;42.654;23.360;2023-06-10T07:08:04;13.38;;;6.95;;
6388;SDS011;3227;42.654;23.360;2023-06-10T07:10:31;13.07;;;7.10;;
6388;SDS011;3227;42.654;23.360;2023-06-10T07:12:58;14.00;;;7.63;;
6388;SDS011;3227;42.654;23.360;2023-06-10T07:15:25;12.07;;;7.35;;
6388;SDS011;3227;42.654;23.360;2023-06-10T07:17:51;19.00;;;7.95;;
6388;SDS011;3227;42.654;23.360;2023-06-10T07:20:20;11.90;;;6.38;;
6388;SDS011;3227;42.654;23.360;2023-06-10T07:22:46;13.63;;;5.90;;
6388;SDS011;3227;42.654;23.360;2023-06-10T07:25:13;14.45;;;5.65;;
6388;SDS011;3227;42.654;23.360;2023-06-10T07:27:40;14.23;;;6.00;;
6388;SDS011;3227;42.654;23.360;2023-06-10T07:30:08;13.70;;;5.38;;
6388;SDS011;3227;42.654;23.360;2023-06-10T07:32:36;13.55;;;5.50;;
6388;SDS011;3227;42.654;23.360;2023-06-10T07:35:03;11.02;;;5.95;;
6388;SDS011;3227;42.654;23.360;2023-06-10T07:37:33;11.80;;;6.03;;
6388;SDS011;3227;42.654;23.360;2023-06-10T07:40:00;10.98;;;6.15;;
6388;SDS011;3227;42.654;23.360;2023-06-10T07:42:26;12.77;;;6.03;;
6388;SDS011;3227;42.654;23.360;2023-06-10T07:44:53;11.50;;;5.60;;
6388;SDS011;3227;42.654;23.360;2023-06-10T07:47:20;11.82;;;6.63;;
6388;SDS011;3227;42.654;23.360;2023-06-10T07:49:47;14.10;;;5.97;;
6388;SDS011;3227;42.654;23.360;2023-06-10T07:52:14;10.45;;;5.55;;
6388;SDS011;3227;42.654;23.360;2023-06-10T07:54:42;12.57;;;6.38;;
6388;SDS011;3227;42.654;23.360;2023-06-10T07:57:09;16.13;;;6.40;;
6388;SDS011;3227;42.654;23.360;2023-06-10T07:59:36;10.60;;;5.93;;
6388;SDS011;3227;42.654;23.360;2023-06-10T08:02:03;10.25;;;5.22;;
6388;SDS011;3227;42.654;23.360;2023-06-10T08:04:30;12.95;;;5.40;;
6388;SDS011;3227;42.654;23.360;2023-06-10T08:06:57;12.40;;;5.85;;
6388;SDS011;3227;42.654;23.360;2023-06-10T08:09:24;11.38;;;5.40;;
6388;SDS011;3227;42.654;23.360;2023-06-10T08:11:52;10.98;;;5.80;;
6388;SDS011;3227;42.654;23.360;2023-06-10T08:14:18;9.40;;;5.25;;
6388;SDS011;3227;42.654;23.360;2023-06-10T08:16:45;9.25;;;5.22;;
6388;SDS011;3227;42.654;23.360;2023-06-10T08:19:12;8.68;;;4.68;;
6388;SDS011;3227;42.654;23.360;2023-06-10T08:21:39;10.93;;;4.60;;
6388;SDS011;3227;42.654;23.360;2023-06-10T08:24:06;8.18;;;4.32;;
6388;SDS011;3227;42.654;23.360;2023-06-10T08:26:33;7.93;;;4.10;;
6388;SDS011;3227;42.654;23.360;2023-06-10T08:29:01;8.82;;;4.30;;
6388;SDS011;3227;42.654;23.360;2023-06-10T08:31:28;8.07;;;4.68;;
6388;SDS011;3227;42.654;23.360;2023-06-10T08:33:55;8.48;;;4.43;;
6388;SDS011;3227;42.654;23.360;2023-06-10T08:36:21;7.50;;;4.18;;
6388;SDS011;3227;42.654;23.360;2023-06-10T08:38:48;9.50;;;5.00;;
6388;SDS011;3227;42.654;23.360;2023-06-10T08:41:16;9.15;;;4.22;;
6388;SDS011;3227;42.654;23.360;2023-06-10T08:43:46;6.90;;;4.28;;
6388;SDS011;3227;42.654;23.360;2023-06-10T08:46:31;10.43;;;4.97;;
6388;SDS011;3227;42.654;23.360;2023-06-10T08:48:58;11.07;;;5.40;;
6388;SDS011;3227;42.654;23.360;2023-06-10T08:51:31;9.00;;;4.53;;
6388;SDS011;3227;42.654;23.360;2023-06-10T08:54:01;9.68;;;3.97;;
6388;SDS011;3227;42.654;23.360;2023-06-10T08:56:30;9.80;;;4.50;;
6388;SDS011;3227;42.654;23.360;2023-06-10T08:58:58;6.75;;;3.97;;
6388;SDS011;3227;42.654;23.360;2023-06-10T09:01:26;7.95;;;3.53;;
6388;SDS011;3227;42.654;23.360;2023-06-10T09:03:55;7.93;;;4.38;;
6388;SDS011;3227;42.654;23.360;2023-06-10T09:06:28;8.55;;;4.50;;
6388;SDS011;3227;42.654;23.360;2023-06-10T09:08:58;7.47;;;3.47;;
6388;SDS011;3227;42.654;23.360;2023-06-10T09:11:25;8.07;;;3.70;;
6388;SDS011;3227;42.654;23.360;2023-06-10T09:13:52;8.05;;;4.38;;
6388;SDS011;3227;42.654;23.360;2023-06-10T09:16:20;12.13;;;4.28;;
6388;SDS011;3227;42.654;23.360;2023-06-10T09:18:47;11.63;;;5.32;;
6388;SDS011;3227;42.654;23.360;2023-06-10T09:21:23;6.47;;;3.47;;
6388;SDS011;3227;42.654;23.360;2023-06-10T09:23:51;6.45;;;3.60;;
6388;SDS011;3227;42.654;23.360;2023-06-10T09:26:18;8.38;;;3.83;;
6388;SDS011;3227;42.654;23.360;2023-06-10T09:28:47;6.28;;;3.80;;
6388;SDS011;3227;42.654;23.360;2023-06-10T09:31:15;7.85;;;3.70;;
6388;SDS011;3227;42.654;23.360;2023-06-10T09:33:44;11.85;;;4.43;;
6388;SDS011;3227;42.654;23.360;2023-06-10T09:36:11;9.02;;;4.90;;
6388;SDS011;3227;42.654;23.360;2023-06-10T09:38:49;8.30;;;4.10;;
6388;SDS011;3227;42.654;23.360;2023-06-10T09:41:16;6.93;;;3.72;;
6388;SDS011;3227;42.654;23.360;2023-06-10T09:43:43;7.00;;;4.10;;
6388;SDS011;3227;42.654;23.360;2023-06-10T09:46:14;8.35;;;4.05;;
6388;SDS011;3227;42.654;23.360;2023-06-10T09:48:43;10.63;;;3.85;;
6388;SDS011;3227;42.654;23.360;2023-06-10T09:51:12;13.07;;;4.18;;
6388;SDS011;3227;42.654;23.360;2023-06-10T09:53:40;11.63;;;4.30;;
6388;SDS011;3227;42.654;23.360;2023-06-10T09:56:10;6.95;;;4.22;;
6388;SDS011;3227;42.654;23.360;2023-06-10T09:58:37;8.05;;;4.00;;
6388;SDS011;3227;42.654;23.360;2023-06-10T10:01:08;9.75;;;3.90;;
6388;SDS011;3227;42.654;23.360;2023-06-10T10:03:43;6.03;;;3.60;;
6388;SDS011;3227;42.654;23.360;2023-06-10T10:06:11;7.95;;;3.45;;
6388;SDS011;3227;42.654;23.360;2023-06-10T10:08:39;8.30;;;3.30;;
6388;SDS011;3227;42.654;23.360;2023-06-10T10:11:06;7.07;;;3.75;;
6388;SDS011;3227;42.654;23.360;2023-06-10T10:13:36;7.32;;;3.15;;
6388;SDS011;3227;42.654;23.360;2023-06-10T10:16:06;5.85;;;3.45;;
6388;SDS011;3227;42.654;23.360;2023-06-10T10:18:38;7.75;;;3.70;;
6388;SDS011;3227;42.654;23.360;2023-06-10T10:21:10;5.60;;;3.42;;
6388;SDS011;3227;42.654;23.360;2023-06-10T10:23:40;7.68;;;3.97;;
6388;SDS011;3227;42.654;23.360;2023-06-10T10:26:14;6.20;;;3.90;;
6388;SDS011;3227;42.654;23.360;2023-06-10T10:28:46;7.88;;;3.90;;
6388;SDS011;3227;42.654;23.360;2023-06-10T10:31:15;13.57;;;6.20;;
6388;SDS011;3227;42.654;23.360;2023-06-10T10:33:48;6.55;;;4.25;;
6388;SDS011;3227;42.654;23.360;2023-06-10T10:36:19;7.80;;;3.90;;
6388;SDS011;3227;42.654;23.360;2023-06-10T10:38:47;15.40;;;4.10;;
6388;SDS011;3227;42.654;23.360;2023-06-10T10:41:14;5.95;;;3.55;;
6388;SDS011;3227;42.654;23.360;2023-06-10T10:43:41;6.47;;;3.90;;
6388;SDS011;3227;42.654;23.360;2023-06-10T10:46:13;8.73;;;3.75;;
6388;SDS011;3227;42.654;23.360;2023-06-10T10:48:40;6.10;;;3.60;;
6388;SDS011;3227;42.654;23.360;2023-06-10T10:51:08;6.10;;;3.88;;
6388;SDS011;3227;42.654;23.360;2023-06-10T10:53:36;10.27;;;4.40;;
6388;SDS011;3227;42.654;23.360;2023-06-10T10:56:04;8.35;;;4.00;;
6388;SDS011;3227;42.654;23.360;2023-06-10T10:58:32;9.75;;;4.03;;
6388;SDS011;3227;42.654;23.360;2023-06-10T11:00:59;8.07;;;4.30;;
6388;SDS011;3227;42.654;23.360;2023-06-10T11:03:29;7.75;;;3.75;;
6388;SDS011;3227;42.654;23.360;2023-06-10T11:05:56;8.23;;;4.70;;
6388;SDS011;3227;42.654;23.360;2023-06-10T11:11:19;8.30;;;3.90;;
6388;SDS011;3227;42.654;23.360;2023-06-10T11:13:59;8.18;;;3.97;;
6388;SDS011;3227;42.654;23.360;2023-06-10T11:16:38;9.65;;;3.90;;
6388;SDS011;3227;42.654;23.360;2023-06-10T11:19:07;10.73;;;4.22;;
6388;SDS011;3227;42.654;23.360;2023-06-10T11:21:37;6.25;;;3.95;;
6388;SDS011;3227;42.654;23.360;2023-06-10T11:24:24;7.85;;;4.25;;
6388;SDS011;3227;42.654;23.360;2023-06-10T11:29:57;8.68;;;3.85;;
6388;SDS011;3227;42.654;23.360;2023-06-10T11:32:40;6.80;;;3.97;;
6388;SDS011;3227;42.654;23.360;2023-06-10T11:35:10;7.95;;;4.28;;
6388;SDS011;3227;42.654;23.360;2023-06-10T11:37:37;8.23;;;4.60;;
6388;SDS011;3227;42.654;23.360;2023-06-10T11:40:05;9.05;;;4.53;;
6388;SDS011;3227;42.654;23.360;2023-06-10T11:42:37;7.03;;;3.83;;
6388;SDS011;3227;42.654;23.360;2023-06-10T11:45:05;9.55;;;4.25;;
6388;SDS011;3227;42.654;23.360;2023-06-10T11:47:34;8.80;;;4.72;;
6388;SDS011;3227;42.654;23.360;2023-06-10T11:50:00;9.25;;;4.05;;
6388;SDS011;3227;42.654;23.360;2023-06-10T11:52:29;7.03;;;4.35;;
6388;SDS011;3227;42.654;23.360;2023-06-10T11:55:12;7.93;;;4.13;;
6388;SDS011;3227;42.654;23.360;2023-06-10T11:57:39;7.40;;;3.88;;
6388;SDS011;3227;42.654;23.360;2023-06-10T12:00:06;9.25;;;4.20;;
6388;SDS011;3227;42.654;23.360;2023-06-10T12:02:33;8.23;;;4.25;;
6388;SDS011;3227;42.654;23.360;2023-06-10T12:05:09;7.10;;;4.20;;
6388;SDS011;3227;42.654;23.360;2023-06-10T12:07:38;11.02;;;4.60;;
6388;SDS011;3227;42.654;23.360;2023-06-10T12:10:05;9.73;;;4.20;;
6388;SDS011;3227;42.654;23.360;2023-06-10T12:12:34;9.75;;;4.10;;
6388;SDS011;3227;42.654;23.360;2023-06-10T12:15:02;7.50;;;3.90;;
6388;SDS011;3227;42.654;23.360;2023-06-10T12:17:36;7.68;;;3.70;;
6388;SDS011;3227;42.654;23.360;2023-06-10T12:20:04;7.43;;;4.00;;
6388;SDS011;3227;42.654;23.360;2023-06-10T12:22:38;10.40;;;3.72;;
6388;SDS011;3227;42.654;23.360;2023-06-10T12:25:06;8.20;;;4.20;;
6388;SDS011;3227;42.654;23.360;2023-06-10T12:27:34;7.97;;;4.10;;
6388;SDS011;3227;42.654;23.360;2023-06-10T12:30:02;8.90;;;4.18;;
6388;SDS011;3227;42.654;23.360;2023-06-10T12:32:40;6.97;;;3.95;;
6388;SDS011;3227;42.654;23.360;2023-06-10T12:35:18;9.60;;;3.92;;
6388;SDS011;3227;42.654;23.360;2023-06-10T12:37:55;7.10;;;4.45;;
6388;SDS011;3227;42.654;23.360;2023-06-10T12:40:28;9.70;;;4.18;;
6388;SDS011;3227;42.654;23.360;2023-06-10T12:42:56;6.78;;;3.83;;
6388;SDS011;3227;42.654;23.360;2023-06-10T12:45:26;9.50;;;4.03;;
6388;SDS011;3227;42.654;23.360;2023-06-10T12:48:03;8.18;;;3.88;;
6388;SDS011;3227;42.654;23.360;2023-06-10T12:50:31;10.68;;;4.22;;
6388;SDS011;3227;42.654;23.360;2023-06-10T12:53:00;8.27;;;4.82;;
6388;SDS011;3227;42.654;23.360;2023-06-10T12:55:27;7.93;;;4.10;;
6388;SDS011;3227;42.654;23.360;2023-06-10T12:57:54;8.90;;;4.15;;
6388;SDS011;3227;42.654;23.360;2023-06-10T13:00:21;7.97;;;3.63;;
6388;SDS011;3227;42.654;23.360;2023-06-10T13:02:51;7.72;;;4.10;;
6388;SDS011;3227;42.654;23.360;2023-06-10T13:05:18;7.55;;;4.25;;
6388;SDS011;3227;42.654;23.360;2023-06-10T13:07:45;5.88;;;3.55;;
6388;SDS011;3227;42.654;23.360;2023-06-10T13:10:13;8.18;;;3.75;;
6388;SDS011;3227;42.654;23.360;2023-06-10T13:12:41;8.45;;;4.70;;
6388;SDS011;3227;42.654;23.360;2023-06-10T13:15:08;9.80;;;4.13;;
6388;SDS011;3227;42.654;23.360;2023-06-10T13:17:36;10.38;;;4.40;;
6388;SDS011;3227;42.654;23.360;2023-06-10T13:20:02;7.90;;;4.30;;
6388;SDS011;3227;42.654;23.360;2023-06-10T13:22:30;7.22;;;4.05;;
6388;SDS011;3227;42.654;23.360;2023-06-10T13:24:57;6.75;;;3.80;;
6388;SDS011;3227;42.654;23.360;2023-06-10T13:27:26;7.68;;;3.67;;
6388;SDS011;3227;42.654;23.360;2023-06-10T13:29:53;6.80;;;3.28;;
6388;SDS011;3227;42.654;23.360;2023-06-10T13:32:19;7.63;;;4.18;;
6388;SDS011;3227;42.654;23.360;2023-06-10T13:34:57;9.32;;;4.53;;
6388;SDS011;3227;42.654;23.360;2023-06-10T13:37:23;7.10;;;3.97;;
6388;SDS011;3227;42.654;23.360;2023-06-10T13:39:50;8.90;;;4.28;;
6388;SDS011;3227;42.654;23.360;2023-06-10T13:42:17;9.32;;;4.13;;
6388;SDS011;3227;42.654;23.360;2023-06-10T13:44:46;7.88;;;4.32;;
6388;SDS011;3227;42.654;23.360;2023-06-10T13:47:13;11.80;;;4.47;;
6388;SDS011;3227;42.654;23.360;2023-06-10T13:49:41;7.28;;;4.00;;
6388;SDS011;3227;42.654;23.360;2023-06-10T13:52:07;9.20;;;4.35;;
6388;SDS011;3227;42.654;23.360;2023-06-10T13:54:34;12.23;;;4.53;;
6388;SDS011;3227;42.654;23.360;2023-06-10T13:57:02;11.90;;;4.40;;
6388;SDS011;3227;42.654;23.360;2023-06-10T13:59:29;9.30;;;4.47;;
6388;SDS011;3227;42.654;23.360;2023-06-10T14:01:57;10.48;;;4.30;;
6388;SDS011;3227;42.654;23.360;2023-06-10T14:04:23;10.25;;;4.68;;
6388;SDS011;3227;42.654;23.360;2023-06-10T14:06:50;6.45;;;4.20;;
6388;SDS011;3227;42.654;23.360;2023-06-10T14:09:17;9.55;;;4.22;;
6388;SDS011;3227;42.654;23.360;2023-06-10T14:11:44;8.68;;;3.85;;
6388;SDS011;3227;42.654;23.360;2023-06-10T14:14:11;11.98;;;4.55;;
6388;SDS011;3227;42.654;23.360;2023-06-10T14:16:38;8.18;;;4.38;;
6388;SDS011;3227;42.654;23.360;2023-06-10T14:19:06;10.50;;;4.68;;
6388;SDS011;3227;42.654;23.360;2023-06-10T14:21:33;10.13;;;4.63;;
6388;SDS011;3227;42.654;23.360;2023-06-10T14:23:59;7.65;;;4.32;;
6388;SDS011;3227;42.654;23.360;2023-06-10T14:26:26;12.00;;;4.30;;
6388;SDS011;3227;42.654;23.360;2023-06-10T14:28:53;9.35;;;5.28;;
6388;SDS011;3227;42.654;23.360;2023-06-10T14:31:20;8.90;;;4.30;;
6388;SDS011;3227;42.654;23.360;2023-06-10T14:33:47;8.30;;;4.07;;
6388;SDS011;3227;42.654;23.360;2023-06-10T14:36:15;8.05;;;4.13;;
6388;SDS011;3227;42.654;23.360;2023-06-10T14:38:42;6.93;;;3.80;;
6388;SDS011;3227;42.654;23.360;2023-06-10T14:41:10;9.18;;;4.10;;
6388;SDS011;3227;42.654;23.360;2023-06-10T14:43:37;8.95;;;4.28;;
6388;SDS011;3227;42.654;23.360;2023-06-10T14:46:04;8.38;;;4.20;;
6388;SDS011;3227;42.654;23.360;2023-06-10T14:48:31;8.10;;;4.07;;
6388;SDS011;3227;42.654;23.360;2023-06-10T14:50:58;8.52;;;4.22;;
6388;SDS011;3227;42.654;23.360;2023-06-10T14:53:26;7.47;;;4.30;;
6388;SDS011;3227;42.654;23.360;2023-06-10T14:55:53;6.93;;;4.40;;
6388;SDS011;3227;42.654;23.360;2023-06-10T14:58:20;7.72;;;3.97;;
6388;SDS011;3227;42.654;23.360;2023-06-10T15:00:46;8.30;;;4.60;;